sensor_id;sensor_type;location;lat;lon;timestamp;temperature;humidity
42615;DHT22;28754;47.700;7.924;2023-08-31T00:00:27;13.40;99.90
42615;DHT22;28754;47.700;7.924;2023-08-31T00:03:15;13.30;99.90
42615;DHT22;28754;47.700;7.924;2023-08-31T00:06:02;13.30;99.90
42615;DHT22;28754;47.700;7.924;2023-08-31T00:08:50;13.30;99.90
42615;DHT22;28754;47.700;7.924;2023-08-31T00:11:37;13.30;99.90
42615;DHT22;28754;47.700;7.924;2023-08-31T00:14:24;13.30;99.90
42615;DHT22;28754;47.700;7.924;2023-08-31T00:17:12;13.40;99.90
42615;DHT22;28754;47.700;7.924;2023-08-31T00:19:59;13.40;99.90
42615;DHT22;28754;47.700;7.924;2023-08-31T00:22:46;13.40;99.90
42615;DHT22;28754;47.700;7.924;2023-08-31T00:25:33;13.40;99.90
42615;DHT22;28754;47.700;7.924;2023-08-31T00:28:20;13.40;99.90
42615;DHT22;28754;47.700;7.924;2023-08-31T00:31:06;13.40;99.90
42615;DHT22;28754;47.700;7.924;2023-08-31T00:33:53;13.40;99.90
42615;DHT22;28754;47.700;7.924;2023-08-31T00:36:40;13.50;99.90
42615;DHT22;28754;47.700;7.924;2023-08-31T00:39:26;13.50;99.90
42615;DHT22;28754;47.700;7.924;2023-08-31T00:42:14;13.30;99.90
42615;DHT22;28754;47.700;7.924;2023-08-31T00:45:00;13.30;99.90
42615;DHT22;28754;47.700;7.924;2023-08-31T00:47:48;13.30;99.90
42615;DHT22;28754;47.700;7.924;2023-08-31T00:50:35;13.20;99.90
42615;DHT22;28754;47.700;7.924;2023-08-31T00:53:23;13.30;99.90
42615;DHT22;28754;47.700;7.924;2023-08-31T00:56:10;13.40;99.90
42615;DHT22;28754;47.700;7.924;2023-08-31T00:58:56;13.40;99.90
42615;DHT22;28754;47.700;7.924;2023-08-31T01:01:51;13.60;99.90
42615;DHT22;28754;47.700;7.924;2023-08-31T01:05:37;13.60;99.90
42615;DHT22;28754;47.700;7.924;2023-08-31T01:08:57;13.40;99.90
42615;DHT22;28754;47.700;7.924;2023-08-31T01:12:02;13.40;99.90
42615;DHT22;28754;47.700;7.924;2023-08-31T01:14:57;13.40;99.90
42615;DHT22;28754;47.700;7.924;2023-08-31T01:17:52;13.30;99.90
42615;DHT22;28754;47.700;7.924;2023-08-31T01:21:12;13.30;99.90
42615;DHT22;28754;47.700;7.924;2023-08-31T01:24:03;13.40;99.90
42615;DHT22;28754;47.700;7.924;2023-08-31T01:26:52;13.30;99.90
42615;DHT22;28754;47.700;7.924;2023-08-31T01:29:40;13.40;99.90
42615;DHT22;28754;47.700;7.924;2023-08-31T01:32:26;13.00;99.90
42615;DHT22;28754;47.700;7.924;2023-08-31T01:35:16;13.00;99.90
42615;DHT22;28754;47.700;7.924;2023-08-31T01:38:08;13.00;99.90
42615;DHT22;28754;47.700;7.924;2023-08-31T01:41:08;12.70;99.90
42615;DHT22;28754;47.700;7.924;2023-08-31T01:44:47;12.40;99.90
42615;DHT22;28754;47.700;7.924;2023-08-31T01:47:39;12.30;99.90
42615;DHT22;28754;47.700;7.924;2023-08-31T01:50:26;12.20;99.90
42615;DHT22;28754;47.700;7.924;2023-08-31T01:53:41;12.40;99.90
42615;DHT22;28754;47.700;7.924;2023-08-31T01:57:16;12.40;99.90
42615;DHT22;28754;47.700;7.924;2023-08-31T02:10:22;12.40;99.90
42615;DHT22;28754;47.700;7.924;2023-08-31T02:13:15;12.70;99.90
42615;DHT22;28754;47.700;7.924;2023-08-31T02:16:05;12.70;99.90
42615;DHT22;28754;47.700;7.924;2023-08-31T02:18:56;12.70;99.90
42615;DHT22;28754;47.700;7.924;2023-08-31T02:21:57;12.70;99.90
42615;DHT22;28754;47.700;7.924;2023-08-31T02:24:45;12.80;99.90
42615;DHT22;28754;47.700;7.924;2023-08-31T02:27:35;12.90;99.90
42615;DHT22;28754;47.700;7.924;2023-08-31T02:30:21;13.00;99.90
42615;DHT22;28754;47.700;7.924;2023-08-31T02:33:08;12.90;99.90
42615;DHT22;28754;47.700;7.924;2023-08-31T02:35:55;12.90;99.90
42615;DHT22;28754;47.700;7.924;2023-08-31T02:38:42;12.50;99.90
42615;DHT22;28754;47.700;7.924;2023-08-31T02:41:29;12.40;99.90
42615;DHT22;28754;47.700;7.924;2023-08-31T02:44:17;12.40;99.90
42615;DHT22;28754;47.700;7.924;2023-08-31T02:47:04;12.40;99.90
42615;DHT22;28754;47.700;7.924;2023-08-31T02:49:50;12.40;99.90
42615;DHT22;28754;47.700;7.924;2023-08-31T02:52:37;12.50;99.90
42615;DHT22;28754;47.700;7.924;2023-08-31T02:55:25;12.40;99.90
42615;DHT22;28754;47.700;7.924;2023-08-31T02:58:12;12.40;99.90
42615;DHT22;28754;47.700;7.924;2023-08-31T03:01:09;12.40;99.90
42615;DHT22;28754;47.700;7.924;2023-08-31T03:03:59;12.50;99.90
42615;DHT22;28754;47.700;7.924;2023-08-31T03:06:46;12.60;99.90
42615;DHT22;28754;47.700;7.924;2023-08-31T03:09:33;12.60;99.90
42615;DHT22;28754;47.700;7.924;2023-08-31T03:12:20;12.70;99.90
42615;DHT22;28754;47.700;7.924;2023-08-31T03:15:07;12.50;99.90
42615;DHT22;28754;47.700;7.924;2023-08-31T03:17:54;12.50;99.90
42615;DHT22;28754;47.700;7.924;2023-08-31T03:20:41;12.50;99.90
42615;DHT22;28754;47.700;7.924;2023-08-31T03:23:29;12.50;99.90
42615;DHT22;28754;47.700;7.924;2023-08-31T03:26:17;12.60;99.90
42615;DHT22;28754;47.700;7.924;2023-08-31T03:29:04;12.40;99.90
42615;DHT22;28754;47.700;7.924;2023-08-31T03:31:50;12.40;99.90
42615;DHT22;28754;47.700;7.924;2023-08-31T03:34:37;12.40;99.90
42615;DHT22;28754;47.700;7.924;2023-08-31T03:37:24;12.30;99.90
42615;DHT22;28754;47.700;7.924;2023-08-31T03:40:11;12.40;99.90
42615;DHT22;28754;47.700;7.924;2023-08-31T03:42:57;12.30;99.90
42615;DHT22;28754;47.700;7.924;2023-08-31T03:45:44;12.40;99.90
42615;DHT22;28754;47.700;7.924;2023-08-31T03:48:31;12.40;99.90
42615;DHT22;28754;47.700;7.924;2023-08-31T03:51:17;12.40;99.90
42615;DHT22;28754;47.700;7.924;2023-08-31T03:54:05;12.20;99.90
42615;DHT22;28754;47.700;7.924;2023-08-31T03:56:52;12.20;99.90
42615;DHT22;28754;47.700;7.924;2023-08-31T03:59:39;12.20;99.90
42615;DHT22;28754;47.700;7.924;2023-08-31T04:02:25;12.20;99.90
42615;DHT22;28754;47.700;7.924;2023-08-31T04:05:12;12.20;99.90
42615;DHT22;28754;47.700;7.924;2023-08-31T04:08:03;12.10;99.90
42615;DHT22;28754;47.700;7.924;2023-08-31T04:10:50;12.30;99.90
42615;DHT22;28754;47.700;7.924;2023-08-31T04:13:37;12.30;99.90
42615;DHT22;28754;47.700;7.924;2023-08-31T04:16:24;12.40;99.90
42615;DHT22;28754;47.700;7.924;2023-08-31T04:19:10;12.30;99.90
42615;DHT22;28754;47.700;7.924;2023-08-31T04:21:57;12.30;99.90
42615;DHT22;28754;47.700;7.924;2023-08-31T04:24:44;12.30;99.90
42615;DHT22;28754;47.700;7.924;2023-08-31T04:27:31;12.30;99.90
42615;DHT22;28754;47.700;7.924;2023-08-31T04:30:17;12.20;99.90
42615;DHT22;28754;47.700;7.924;2023-08-31T04:33:06;12.20;99.90
42615;DHT22;28754;47.700;7.924;2023-08-31T04:35:53;12.20;99.90
42615;DHT22;28754;47.700;7.924;2023-08-31T04:38:39;12.40;99.90
42615;DHT22;28754;47.700;7.924;2023-08-31T04:41:26;12.40;99.90
42615;DHT22;28754;47.700;7.924;2023-08-31T04:44:13;12.20;99.90
42615;DHT22;28754;47.700;7.924;2023-08-31T04:46:59;12.40;99.90
42615;DHT22;28754;47.700;7.924;2023-08-31T04:49:46;12.30;99.90
42615;DHT22;28754;47.700;7.924;2023-08-31T04:52:33;12.30;99.90
42615;DHT22;28754;47.700;7.924;2023-08-31T04:55:21;12.20;99.90
42615;DHT22;28754;47.700;7.924;2023-08-31T04:58:11;12.10;99.90
42615;DHT22;28754;47.700;7.924;2023-08-31T05:00:58;12.30;99.90
42615;DHT22;28754;47.700;7.924;2023-08-31T05:03:44;12.30;99.90
42615;DHT22;28754;47.700;7.924;2023-08-31T05:06:31;12.30;99.90
42615;DHT22;28754;47.700;7.924;2023-08-31T05:09:18;12.30;99.90
42615;DHT22;28754;47.700;7.924;2023-08-31T05:12:05;12.40;99.90
42615;DHT22;28754;47.700;7.924;2023-08-31T05:14:53;12.40;99.90
42615;DHT22;28754;47.700;7.924;2023-08-31T05:17:40;12.40;99.90
42615;DHT22;28754;47.700;7.924;2023-08-31T05:20:27;12.50;99.90
42615;DHT22;28754;47.700;7.924;2023-08-31T05:23:14;12.50;99.90
42615;DHT22;28754;47.700;7.924;2023-08-31T05:26:00;12.40;99.90
42615;DHT22;28754;47.700;7.924;2023-08-31T05:28:47;12.40;99.90
42615;DHT22;28754;47.700;7.924;2023-08-31T05:31:34;12.40;99.90
42615;DHT22;28754;47.700;7.924;2023-08-31T05:34:21;12.60;99.90
42615;DHT22;28754;47.700;7.924;2023-08-31T05:37:11;12.40;99.90
42615;DHT22;28754;47.700;7.924;2023-08-31T05:39:58;12.60;99.90
42615;DHT22;28754;47.700;7.924;2023-08-31T05:42:45;12.60;99.90
42615;DHT22;28754;47.700;7.924;2023-08-31T05:45:35;12.60;99.90
42615;DHT22;28754;47.700;7.924;2023-08-31T05:48:21;12.70;99.90
42615;DHT22;28754;47.700;7.924;2023-08-31T05:51:08;12.80;99.90
42615;DHT22;28754;47.700;7.924;2023-08-31T05:53:55;12.80;99.90
42615;DHT22;28754;47.700;7.924;2023-08-31T05:56:42;12.80;99.90
42615;DHT22;28754;47.700;7.924;2023-08-31T05:59:29;12.70;99.90
42615;DHT22;28754;47.700;7.924;2023-08-31T06:02:15;12.80;99.90
42615;DHT22;28754;47.700;7.924;2023-08-31T06:05:02;12.60;99.90
42615;DHT22;28754;47.700;7.924;2023-08-31T06:07:50;12.60;99.90
42615;DHT22;28754;47.700;7.924;2023-08-31T06:10:37;12.40;99.90
42615;DHT22;28754;47.700;7.924;2023-08-31T06:13:24;12.50;99.90
42615;DHT22;28754;47.700;7.924;2023-08-31T06:16:10;12.40;99.90
42615;DHT22;28754;47.700;7.924;2023-08-31T06:18:57;12.60;99.90
42615;DHT22;28754;47.700;7.924;2023-08-31T06:21:44;12.50;99.90
42615;DHT22;28754;47.700;7.924;2023-08-31T06:24:30;12.50;99.90
42615;DHT22;28754;47.700;7.924;2023-08-31T06:27:18;12.50;99.90
42615;DHT22;28754;47.700;7.924;2023-08-31T06:30:06;12.50;99.90
42615;DHT22;28754;47.700;7.924;2023-08-31T06:32:54;12.60;99.90
42615;DHT22;28754;47.700;7.924;2023-08-31T06:35:42;12.70;99.90
42615;DHT22;28754;47.700;7.924;2023-08-31T06:38:29;12.70;99.90
42615;DHT22;28754;47.700;7.924;2023-08-31T06:41:16;12.70;99.90
42615;DHT22;28754;47.700;7.924;2023-08-31T06:44:03;12.80;99.90
42615;DHT22;28754;47.700;7.924;2023-08-31T06:46:50;12.90;99.90
42615;DHT22;28754;47.700;7.924;2023-08-31T06:49:37;13.20;99.90
42615;DHT22;28754;47.700;7.924;2023-08-31T06:52:25;13.40;99.90
42615;DHT22;28754;47.700;7.924;2023-08-31T06:55:13;13.40;99.90
42615;DHT22;28754;47.700;7.924;2023-08-31T06:58:01;13.40;99.90
42615;DHT22;28754;47.700;7.924;2023-08-31T07:00:50;13.30;99.90
42615;DHT22;28754;47.700;7.924;2023-08-31T07:03:37;13.50;99.90
42615;DHT22;28754;47.700;7.924;2023-08-31T07:06:24;13.80;99.90
42615;DHT22;28754;47.700;7.924;2023-08-31T07:09:11;14.50;99.90
42615;DHT22;28754;47.700;7.924;2023-08-31T07:11:58;14.90;99.90
42615;DHT22;28754;47.700;7.924;2023-08-31T07:14:45;15.20;99.90
42615;DHT22;28754;47.700;7.924;2023-08-31T07:17:32;14.90;99.90
42615;DHT22;28754;47.700;7.924;2023-08-31T07:20:25;14.40;99.90
42615;DHT22;28754;47.700;7.924;2023-08-31T07:23:14;14.10;99.90
42615;DHT22;28754;47.700;7.924;2023-08-31T07:26:21;14.00;99.90
42615;DHT22;28754;47.700;7.924;2023-08-31T07:29:40;14.20;99.90
42615;DHT22;28754;47.700;7.924;2023-08-31T07:36:30;15.00;99.90
42615;DHT22;28754;47.700;7.924;2023-08-31T07:39:52;15.20;99.90
42615;DHT22;28754;47.700;7.924;2023-08-31T07:42:50;15.50;99.90
42615;DHT22;28754;47.700;7.924;2023-08-31T07:45:43;15.40;99.90
42615;DHT22;28754;47.700;7.924;2023-08-31T07:48:44;15.90;99.90
42615;DHT22;28754;47.700;7.924;2023-08-31T07:52:00;16.00;99.90
42615;DHT22;28754;47.700;7.924;2023-08-31T07:55:02;16.00;99.90
42615;DHT22;28754;47.700;7.924;2023-08-31T07:57:57;16.10;99.90
42615;DHT22;28754;47.700;7.924;2023-08-31T08:01:17;16.10;99.90
42615;DHT22;28754;47.700;7.924;2023-08-31T08:04:20;16.20;99.90
42615;DHT22;28754;47.700;7.924;2023-08-31T08:07:21;16.50;99.90
42615;DHT22;28754;47.700;7.924;2023-08-31T08:10:16;15.80;99.90
42615;DHT22;28754;47.700;7.924;2023-08-31T08:13:41;15.40;99.90
42615;DHT22;28754;47.700;7.924;2023-08-31T08:16:35;15.40;99.90
42615;DHT22;28754;47.700;7.924;2023-08-31T08:19:36;16.00;99.90
42615;DHT22;28754;47.700;7.924;2023-08-31T08:22:53;15.90;99.90
42615;DHT22;28754;47.700;7.924;2023-08-31T08:26:00;15.50;99.90
42615;DHT22;28754;47.700;7.924;2023-08-31T08:29:05;15.40;99.90
42615;DHT22;28754;47.700;7.924;2023-08-31T08:45:55;15.90;99.90
42615;DHT22;28754;47.700;7.924;2023-08-31T08:50:13;16.10;99.90
42615;DHT22;28754;47.700;7.924;2023-08-31T09:02:11;17.50;99.90
42615;DHT22;28754;47.700;7.924;2023-08-31T09:05:00;17.00;99.90
42615;DHT22;28754;47.700;7.924;2023-08-31T09:08:16;16.90;99.90
42615;DHT22;28754;47.700;7.924;2023-08-31T09:11:03;16.70;99.90
42615;DHT22;28754;47.700;7.924;2023-08-31T09:13:53;16.40;99.90
42615;DHT22;28754;47.700;7.924;2023-08-31T09:16:48;16.30;99.90
42615;DHT22;28754;47.700;7.924;2023-08-31T09:19:36;16.60;99.90
42615;DHT22;28754;47.700;7.924;2023-08-31T09:22:22;16.70;99.90
42615;DHT22;28754;47.700;7.924;2023-08-31T09:25:09;16.90;99.90
42615;DHT22;28754;47.700;7.924;2023-08-31T09:27:56;17.00;99.90
42615;DHT22;28754;47.700;7.924;2023-08-31T09:30:45;16.70;99.90
42615;DHT22;28754;47.700;7.924;2023-08-31T09:33:35;16.90;99.90
42615;DHT22;28754;47.700;7.924;2023-08-31T09:36:24;17.50;99.90
42615;DHT22;28754;47.700;7.924;2023-08-31T09:39:14;17.50;99.90
42615;DHT22;28754;47.700;7.924;2023-08-31T09:42:01;17.10;99.90
42615;DHT22;28754;47.700;7.924;2023-08-31T09:44:49;17.00;99.90
42615;DHT22;28754;47.700;7.924;2023-08-31T09:47:36;16.30;99.90
42615;DHT22;28754;47.700;7.924;2023-08-31T09:50:24;16.00;99.90
42615;DHT22;28754;47.700;7.924;2023-08-31T09:53:12;15.50;99.90
42615;DHT22;28754;47.700;7.924;2023-08-31T09:56:04;15.40;99.90
42615;DHT22;28754;47.700;7.924;2023-08-31T09:58:52;15.70;99.90
42615;DHT22;28754;47.700;7.924;2023-08-31T10:01:40;15.80;99.90
42615;DHT22;28754;47.700;7.924;2023-08-31T10:04:29;15.10;99.90
42615;DHT22;28754;47.700;7.924;2023-08-31T10:07:19;15.40;99.90
42615;DHT22;28754;47.700;7.924;2023-08-31T10:10:06;15.50;99.90
42615;DHT22;28754;47.700;7.924;2023-08-31T10:12:54;15.70;99.90
42615;DHT22;28754;47.700;7.924;2023-08-31T10:15:43;15.80;99.90
42615;DHT22;28754;47.700;7.924;2023-08-31T10:18:31;15.80;99.90
42615;DHT22;28754;47.700;7.924;2023-08-31T10:21:20;15.90;99.90
42615;DHT22;28754;47.700;7.924;2023-08-31T10:24:07;15.70;99.90
42615;DHT22;28754;47.700;7.924;2023-08-31T10:26:54;15.90;99.90
42615;DHT22;28754;47.700;7.924;2023-08-31T10:29:42;16.00;99.90
42615;DHT22;28754;47.700;7.924;2023-08-31T10:32:28;16.30;99.90
42615;DHT22;28754;47.700;7.924;2023-08-31T10:35:15;16.20;99.90
42615;DHT22;28754;47.700;7.924;2023-08-31T10:38:35;16.30;99.90
42615;DHT22;28754;47.700;7.924;2023-08-31T10:41:21;16.30;99.90
42615;DHT22;28754;47.700;7.924;2023-08-31T10:44:21;16.20;99.90
42615;DHT22;28754;47.700;7.924;2023-08-31T10:47:12;16.00;99.90
42615;DHT22;28754;47.700;7.924;2023-08-31T10:50:16;16.10;99.90
42615;DHT22;28754;47.700;7.924;2023-08-31T10:53:09;16.10;99.90
42615;DHT22;28754;47.700;7.924;2023-08-31T10:55:58;16.20;99.90
42615;DHT22;28754;47.700;7.924;2023-08-31T10:58:58;16.20;99.90
42615;DHT22;28754;47.700;7.924;2023-08-31T11:04:54;16.20;99.90
42615;DHT22;28754;47.700;7.924;2023-08-31T11:07:44;16.30;99.90
42615;DHT22;28754;47.700;7.924;2023-08-31T11:10:35;16.00;99.90
42615;DHT22;28754;47.700;7.924;2023-08-31T11:13:23;15.90;99.90
42615;DHT22;28754;47.700;7.924;2023-08-31T11:16:10;16.10;99.90
42615;DHT22;28754;47.700;7.924;2023-08-31T11:18:57;15.50;99.90
42615;DHT22;28754;47.700;7.924;2023-08-31T11:21:44;15.70;99.90
42615;DHT22;28754;47.700;7.924;2023-08-31T11:24:33;16.00;99.90
42615;DHT22;28754;47.700;7.924;2023-08-31T11:27:23;16.40;99.90
42615;DHT22;28754;47.700;7.924;2023-08-31T11:30:20;16.40;99.90
42615;DHT22;28754;47.700;7.924;2023-08-31T11:33:09;16.40;99.90
42615;DHT22;28754;47.700;7.924;2023-08-31T11:35:58;16.20;99.90
42615;DHT22;28754;47.700;7.924;2023-08-31T11:38:48;15.80;99.90
42615;DHT22;28754;47.700;7.924;2023-08-31T11:41:40;16.00;99.90
42615;DHT22;28754;47.700;7.924;2023-08-31T11:44:29;16.30;99.90
42615;DHT22;28754;47.700;7.924;2023-08-31T11:48:00;16.40;99.90
42615;DHT22;28754;47.700;7.924;2023-08-31T11:50:52;15.90;99.90
42615;DHT22;28754;47.700;7.924;2023-08-31T11:53:44;16.20;99.90
42615;DHT22;28754;47.700;7.924;2023-08-31T11:56:45;16.50;99.90
42615;DHT22;28754;47.700;7.924;2023-08-31T11:59:39;16.30;99.90
42615;DHT22;28754;47.700;7.924;2023-08-31T12:02:28;16.30;99.90
42615;DHT22;28754;47.700;7.924;2023-08-31T12:05:21;16.70;99.90
42615;DHT22;28754;47.700;7.924;2023-08-31T12:08:08;17.10;99.90
42615;DHT22;28754;47.700;7.924;2023-08-31T12:11:25;17.10;99.90
42615;DHT22;28754;47.700;7.924;2023-08-31T12:15:17;17.00;99.90
42615;DHT22;28754;47.700;7.924;2023-08-31T12:18:47;17.00;99.90
42615;DHT22;28754;47.700;7.924;2023-08-31T12:21:34;17.50;99.90
42615;DHT22;28754;47.700;7.924;2023-08-31T12:24:20;17.10;99.90
42615;DHT22;28754;47.700;7.924;2023-08-31T12:27:09;17.20;99.90
42615;DHT22;28754;47.700;7.924;2023-08-31T12:29:58;17.10;99.90
42615;DHT22;28754;47.700;7.924;2023-08-31T12:32:46;17.40;99.90
42615;DHT22;28754;47.700;7.924;2023-08-31T12:35:35;17.60;99.90
42615;DHT22;28754;47.700;7.924;2023-08-31T12:38:25;18.00;99.90
42615;DHT22;28754;47.700;7.924;2023-08-31T12:41:12;18.00;99.90
42615;DHT22;28754;47.700;7.924;2023-08-31T12:44:03;18.00;99.90
42615;DHT22;28754;47.700;7.924;2023-08-31T12:46:56;17.60;99.90
42615;DHT22;28754;47.700;7.924;2023-08-31T12:49:50;17.20;99.90
42615;DHT22;28754;47.700;7.924;2023-08-31T12:52:49;17.70;99.90
42615;DHT22;28754;47.700;7.924;2023-08-31T12:55:36;18.20;99.90
42615;DHT22;28754;47.700;7.924;2023-08-31T12:58:25;18.00;99.90
42615;DHT22;28754;47.700;7.924;2023-08-31T13:01:12;18.10;99.90
42615;DHT22;28754;47.700;7.924;2023-08-31T13:03:59;18.30;99.90
42615;DHT22;28754;47.700;7.924;2023-08-31T13:06:46;18.30;99.90
42615;DHT22;28754;47.700;7.924;2023-08-31T13:09:34;18.20;99.90
42615;DHT22;28754;47.700;7.924;2023-08-31T13:12:21;18.50;99.90
42615;DHT22;28754;47.700;7.924;2023-08-31T13:19:25;19.00;99.90
42615;DHT22;28754;47.700;7.924;2023-08-31T13:30:45;18.90;99.90
42615;DHT22;28754;47.700;7.924;2023-08-31T13:37:39;18.70;99.90
42615;DHT22;28754;47.700;7.924;2023-08-31T13:40:29;18.70;99.90
42615;DHT22;28754;47.700;7.924;2023-08-31T13:43:16;18.60;99.90
42615;DHT22;28754;47.700;7.924;2023-08-31T13:46:09;18.50;99.90
42615;DHT22;28754;47.700;7.924;2023-08-31T13:49:05;18.30;99.90
42615;DHT22;28754;47.700;7.924;2023-08-31T13:51:56;18.30;99.90
42615;DHT22;28754;47.700;7.924;2023-08-31T13:54:46;18.30;99.90
42615;DHT22;28754;47.700;7.924;2023-08-31T13:57:44;18.60;99.90
42615;DHT22;28754;47.700;7.924;2023-08-31T14:00:43;18.70;99.90
42615;DHT22;28754;47.700;7.924;2023-08-31T14:04:12;19.00;99.90
42615;DHT22;28754;47.700;7.924;2023-08-31T14:07:19;18.80;99.90
42615;DHT22;28754;47.700;7.924;2023-08-31T14:10:06;18.60;99.90
42615;DHT22;28754;47.700;7.924;2023-08-31T14:12:56;18.10;99.90
42615;DHT22;28754;47.700;7.924;2023-08-31T14:15:46;18.00;99.90
42615;DHT22;28754;47.700;7.924;2023-08-31T14:18:33;17.80;99.90
42615;DHT22;28754;47.700;7.924;2023-08-31T14:21:22;17.80;99.90
42615;DHT22;28754;47.700;7.924;2023-08-31T14:24:22;17.70;99.90
42615;DHT22;28754;47.700;7.924;2023-08-31T14:27:29;17.80;99.90
42615;DHT22;28754;47.700;7.924;2023-08-31T14:30:38;17.70;99.90
42615;DHT22;28754;47.700;7.924;2023-08-31T14:33:24;17.90;99.90
42615;DHT22;28754;47.700;7.924;2023-08-31T14:36:14;17.70;99.90
42615;DHT22;28754;47.700;7.924;2023-08-31T14:39:02;17.70;99.90
42615;DHT22;28754;47.700;7.924;2023-08-31T14:41:49;17.90;99.90
42615;DHT22;28754;47.700;7.924;2023-08-31T14:44:35;18.40;99.90
42615;DHT22;28754;47.700;7.924;2023-08-31T14:47:27;18.40;99.90
42615;DHT22;28754;47.700;7.924;2023-08-31T14:50:29;18.20;99.90
42615;DHT22;28754;47.700;7.924;2023-08-31T14:53:27;18.10;99.90
42615;DHT22;28754;47.700;7.924;2023-08-31T14:56:14;18.20;99.90
42615;DHT22;28754;47.700;7.924;2023-08-31T14:59:03;18.10;99.90
42615;DHT22;28754;47.700;7.924;2023-08-31T15:01:50;18.10;99.90
42615;DHT22;28754;47.700;7.924;2023-08-31T15:04:44;17.90;99.90
42615;DHT22;28754;47.700;7.924;2023-08-31T15:07:36;17.70;99.90
42615;DHT22;28754;47.700;7.924;2023-08-31T15:10:33;17.40;99.90
42615;DHT22;28754;47.700;7.924;2023-08-31T15:13:28;17.50;99.90
42615;DHT22;28754;47.700;7.924;2023-08-31T15:16:15;17.30;99.90
42615;DHT22;28754;47.700;7.924;2023-08-31T15:19:04;17.10;99.90
42615;DHT22;28754;47.700;7.924;2023-08-31T15:21:51;17.10;99.90
42615;DHT22;28754;47.700;7.924;2023-08-31T15:24:41;17.20;99.90
42615;DHT22;28754;47.700;7.924;2023-08-31T15:27:30;17.40;99.90
42615;DHT22;28754;47.700;7.924;2023-08-31T15:30:25;17.70;99.90
42615;DHT22;28754;47.700;7.924;2023-08-31T15:33:21;17.80;99.90
42615;DHT22;28754;47.700;7.924;2023-08-31T15:36:08;17.50;99.90
42615;DHT22;28754;47.700;7.924;2023-08-31T15:39:07;17.50;99.90
42615;DHT22;28754;47.700;7.924;2023-08-31T15:42:03;17.50;99.90
42615;DHT22;28754;47.700;7.924;2023-08-31T15:44:58;17.50;99.90
42615;DHT22;28754;47.700;7.924;2023-08-31T15:47:45;17.40;99.90
42615;DHT22;28754;47.700;7.924;2023-08-31T15:50:38;17.50;99.90
42615;DHT22;28754;47.700;7.924;2023-08-31T15:53:38;17.20;99.90
42615;DHT22;28754;47.700;7.924;2023-08-31T15:56:35;17.30;99.90
42615;DHT22;28754;47.700;7.924;2023-08-31T16:02:51;17.10;99.90
42615;DHT22;28754;47.700;7.924;2023-08-31T16:06:20;17.00;99.90
42615;DHT22;28754;47.700;7.924;2023-08-31T16:10:02;17.00;99.90
42615;DHT22;28754;47.700;7.924;2023-08-31T16:13:43;16.90;99.90
42615;DHT22;28754;47.700;7.924;2023-08-31T16:16:45;16.70;99.90
42615;DHT22;28754;47.700;7.924;2023-08-31T16:20:06;17.00;99.90
42615;DHT22;28754;47.700;7.924;2023-08-31T16:23:18;17.20;99.90
42615;DHT22;28754;47.700;7.924;2023-08-31T16:30:34;17.00;99.90
42615;DHT22;28754;47.700;7.924;2023-08-31T16:33:48;17.10;99.90
42615;DHT22;28754;47.700;7.924;2023-08-31T16:40:53;17.30;99.90
42615;DHT22;28754;47.700;7.924;2023-08-31T16:44:13;17.10;99.90
42615;DHT22;28754;47.700;7.924;2023-08-31T16:47:13;17.10;99.90
42615;DHT22;28754;47.700;7.924;2023-08-31T16:54:12;17.20;99.90
42615;DHT22;28754;47.700;7.924;2023-08-31T17:01:51;17.20;99.90
42615;DHT22;28754;47.700;7.924;2023-08-31T17:05:01;17.30;99.90
42615;DHT22;28754;47.700;7.924;2023-08-31T17:08:27;17.10;99.90
42615;DHT22;28754;47.700;7.924;2023-08-31T17:11:28;16.90;99.90
42615;DHT22;28754;47.700;7.924;2023-08-31T17:14:21;16.80;99.90
42615;DHT22;28754;47.700;7.924;2023-08-31T17:17:30;16.90;99.90
42615;DHT22;28754;47.700;7.924;2023-08-31T17:24:42;16.90;99.90
42615;DHT22;28754;47.700;7.924;2023-08-31T17:27:43;16.80;99.90
42615;DHT22;28754;47.700;7.924;2023-08-31T17:30:36;16.70;99.90
42615;DHT22;28754;47.700;7.924;2023-08-31T17:33:23;16.70;99.90
42615;DHT22;28754;47.700;7.924;2023-08-31T17:36:15;16.60;99.90
42615;DHT22;28754;47.700;7.924;2023-08-31T17:39:05;16.60;99.90
42615;DHT22;28754;47.700;7.924;2023-08-31T17:41:54;16.50;99.90
42615;DHT22;28754;47.700;7.924;2023-08-31T17:44:41;16.50;99.90
42615;DHT22;28754;47.700;7.924;2023-08-31T17:47:31;16.40;99.90
42615;DHT22;28754;47.700;7.924;2023-08-31T17:50:21;16.20;99.90
42615;DHT22;28754;47.700;7.924;2023-08-31T17:53:14;16.20;99.90
42615;DHT22;28754;47.700;7.924;2023-08-31T17:56:11;16.20;99.90
42615;DHT22;28754;47.700;7.924;2023-08-31T17:58:58;16.20;99.90
42615;DHT22;28754;47.700;7.924;2023-08-31T18:01:50;16.20;99.90
42615;DHT22;28754;47.700;7.924;2023-08-31T18:04:42;16.10;99.90
42615;DHT22;28754;47.700;7.924;2023-08-31T18:07:29;16.10;99.90
42615;DHT22;28754;47.700;7.924;2023-08-31T18:10:20;16.00;99.90
42615;DHT22;28754;47.700;7.924;2023-08-31T18:13:10;16.00;99.90
42615;DHT22;28754;47.700;7.924;2023-08-31T18:16:00;15.90;99.90
42615;DHT22;28754;47.700;7.924;2023-08-31T18:18:48;15.80;99.90
42615;DHT22;28754;47.700;7.924;2023-08-31T18:21:37;15.90;99.90
42615;DHT22;28754;47.700;7.924;2023-08-31T18:24:24;15.80;99.90
42615;DHT22;28754;47.700;7.924;2023-08-31T18:27:11;15.80;99.90
42615;DHT22;28754;47.700;7.924;2023-08-31T18:29:59;15.70;99.90
42615;DHT22;28754;47.700;7.924;2023-08-31T18:32:46;15.60;99.90
42615;DHT22;28754;47.700;7.924;2023-08-31T18:35:33;15.60;99.90
42615;DHT22;28754;47.700;7.924;2023-08-31T18:38:21;15.70;99.90
42615;DHT22;28754;47.700;7.924;2023-08-31T18:41:11;15.60;99.90
42615;DHT22;28754;47.700;7.924;2023-08-31T18:43:58;15.50;99.90
42615;DHT22;28754;47.700;7.924;2023-08-31T18:46:45;15.50;99.90
42615;DHT22;28754;47.700;7.924;2023-08-31T18:49:31;15.60;99.90
42615;DHT22;28754;47.700;7.924;2023-08-31T18:52:19;15.60;99.90
42615;DHT22;28754;47.700;7.924;2023-08-31T18:55:07;15.50;99.90
42615;DHT22;28754;47.700;7.924;2023-08-31T18:58:05;15.40;99.90
42615;DHT22;28754;47.700;7.924;2023-08-31T19:01:25;15.40;99.90
42615;DHT22;28754;47.700;7.924;2023-08-31T19:04:15;15.30;99.90
42615;DHT22;28754;47.700;7.924;2023-08-31T19:07:02;15.40;99.90
42615;DHT22;28754;47.700;7.924;2023-08-31T19:09:51;15.40;99.90
42615;DHT22;28754;47.700;7.924;2023-08-31T19:12:38;15.50;99.90
42615;DHT22;28754;47.700;7.924;2023-08-31T19:15:28;15.60;99.90
42615;DHT22;28754;47.700;7.924;2023-08-31T19:18:16;15.50;99.90
42615;DHT22;28754;47.700;7.924;2023-08-31T19:21:03;15.70;99.90
42615;DHT22;28754;47.700;7.924;2023-08-31T19:23:55;15.60;99.90
42615;DHT22;28754;47.700;7.924;2023-08-31T19:26:42;15.70;99.90
42615;DHT22;28754;47.700;7.924;2023-08-31T19:29:29;15.60;99.90
42615;DHT22;28754;47.700;7.924;2023-08-31T19:32:18;15.60;99.90